createdAt,value
2023-04-18T00:01:44.548Z,14.60
2023-04-18T00:04:12.430Z,18.20
2023-04-18T00:06:39.993Z,15.13
2023-04-18T00:09:06.693Z,15.43
2023-04-18T00:11:34.339Z,19.60
2023-04-18T00:14:00.973Z,17.13
2023-04-18T00:16:28.318Z,17.10
2023-04-18T00:18:55.443Z,16.83
2023-04-18T00:21:22.667Z,17.70
2023-04-18T00:23:49.328Z,15.73
2023-04-18T00:26:15.940Z,14.17
2023-04-18T00:28:42.542Z,16.63
2023-04-18T00:31:09.280Z,17.73
2023-04-18T00:33:35.914Z,14.53
2023-04-18T00:36:02.576Z,15.60
2023-04-18T00:38:29.183Z,15.63
2023-04-18T00:40:55.830Z,15.17
2023-04-18T00:43:23.868Z,17.80
2023-04-18T00:45:50.691Z,17.27
2023-04-18T00:48:17.615Z,16.43
2023-04-18T00:50:44.549Z,16.83
2023-04-18T00:53:11.184Z,15.03
2023-04-18T00:55:38.695Z,13.90
2023-04-18T00:58:06.227Z,14.23
2023-04-18T01:00:32.976Z,13.77
2023-04-18T01:02:59.802Z,16.30
2023-04-18T01:05:27.031Z,17.33
2023-04-18T01:07:58.677Z,17.27
2023-04-18T01:10:25.522Z,16.27
2023-04-18T01:13:10.150Z,18.10
2023-04-18T01:18:03.885Z,14.47
2023-04-18T01:20:31.303Z,15.03
2023-04-18T01:22:58.233Z,14.50
2023-04-18T01:25:24.941Z,15.43
2023-04-18T01:27:51.646Z,18.33
2023-04-18T01:30:18.378Z,18.90
2023-04-18T01:32:48.075Z,19.40
2023-04-18T01:35:14.697Z,17.27
2023-04-18T01:37:41.333Z,18.20
2023-04-18T01:40:08.674Z,19.83
2023-04-18T01:42:35.327Z,16.10
2023-04-18T01:45:02.033Z,18.47
2023-04-18T01:47:28.648Z,18.17
2023-04-18T01:49:55.618Z,16.43
2023-04-18T01:52:22.307Z,16.33
2023-04-18T01:54:48.936Z,17.90
2023-04-18T01:57:15.511Z,18.53
2023-04-18T01:59:42.121Z,18.23
2023-04-18T02:02:08.797Z,16.10
2023-04-18T02:04:35.841Z,17.13
2023-04-18T02:07:02.503Z,15.03
2023-04-18T02:09:29.135Z,17.13
2023-04-18T02:11:59.268Z,16.93
2023-04-18T02:14:27.224Z,17.57
2023-04-18T02:16:53.871Z,20.80
2023-04-18T02:19:20.543Z,19.23
2023-04-18T02:21:47.136Z,18.30
2023-04-18T02:24:13.891Z,20.67
2023-04-18T02:26:40.760Z,18.93
2023-04-18T02:29:07.460Z,16.50
2023-04-18T02:31:34.139Z,18.20
2023-04-18T02:34:00.769Z,15.67
2023-04-18T02:36:28.208Z,18.83
2023-04-18T02:38:55.036Z,23.43
2023-04-18T02:41:21.758Z,17.60
2023-04-18T02:43:48.410Z,17.77
2023-04-18T02:46:15.210Z,18.00
2023-04-18T02:48:41.942Z,19.57
2023-04-18T02:51:08.896Z,18.03
2023-04-18T02:53:35.620Z,21.77
2023-04-18T02:56:03.302Z,18.20
2023-04-18T02:58:30.036Z,19.47
2023-04-18T03:00:56.866Z,18.43
2023-04-18T03:03:23.571Z,25.07
2023-04-18T03:05:50.327Z,19.47
2023-04-18T03:08:17.028Z,20.07
2023-04-18T03:10:43.721Z,22.67
2023-04-18T03:13:10.371Z,20.67
2023-04-18T03:15:37.420Z,17.07
2023-04-18T03:18:05.740Z,17.90
2023-04-18T03:20:32.446Z,19.60
2023-04-18T03:22:59.094Z,18.17
2023-04-18T03:25:25.836Z,21.73
2023-04-18T03:27:52.449Z,20.80
2023-04-18T03:30:19.058Z,25.30
2023-04-18T03:32:46.661Z,23.87
2023-04-18T03:35:13.437Z,23.37
2023-04-18T03:37:40.040Z,21.87
2023-04-18T03:40:07.140Z,21.27
2023-04-18T03:42:33.794Z,18.97
2023-04-18T03:45:00.400Z,23.10
2023-04-18T03:47:27.021Z,24.43
2023-04-18T03:49:54.458Z,23.97
2023-04-18T03:52:21.071Z,24.30
2023-04-18T03:54:47.836Z,21.37
2023-04-18T03:57:14.754Z,23.83
2023-04-18T03:59:41.807Z,22.03
2023-04-18T04:02:08.530Z,26.00
2023-04-18T04:04:35.399Z,25.03
2023-04-18T04:07:02.174Z,25.13
2023-04-18T04:09:28.890Z,23.73
2023-04-18T04:11:55.525Z,24.00
2023-04-18T04:14:22.892Z,28.63
2023-04-18T04:16:49.581Z,25.87
2023-04-18T04:19:16.336Z,30.10
2023-04-18T04:21:42.953Z,27.23
2023-04-18T04:24:09.615Z,29.23
2023-04-18T04:26:36.307Z,23.67
2023-04-18T04:29:03.658Z,27.83
2023-04-18T04:31:30.310Z,22.10
2023-04-18T04:33:56.956Z,24.20
2023-04-18T04:36:24.849Z,25.87
2023-04-18T04:38:52.392Z,25.20
2023-04-18T04:41:19.175Z,23.93
2023-04-18T04:43:46.679Z,29.83
2023-04-18T04:46:13.882Z,24.17
2023-04-18T04:48:40.872Z,23.53
2023-04-18T04:51:07.618Z,22.93
2023-04-18T04:53:34.427Z,24.27
2023-04-18T04:56:01.098Z,22.87
2023-04-18T04:58:28.144Z,24.40
2023-04-18T05:00:55.008Z,24.53
2023-04-18T05:03:22.123Z,25.97
2023-04-18T05:05:49.079Z,24.77
2023-04-18T05:08:15.847Z,23.27
2023-04-18T05:10:43.595Z,25.87
2023-04-18T05:13:10.373Z,22.00
2023-04-18T05:15:37.589Z,22.43
2023-04-18T05:18:04.543Z,22.27
2023-04-18T05:20:31.243Z,25.27
2023-04-18T05:22:57.947Z,19.07
2023-04-18T05:25:24.654Z,21.40
2023-04-18T05:27:52.546Z,25.50
2023-04-18T05:30:19.579Z,21.37
2023-04-18T05:32:46.326Z,22.13
2023-04-18T05:35:13.099Z,21.67
2023-04-18T05:37:39.812Z,22.03
2023-04-18T05:40:09.024Z,23.00
2023-04-18T05:42:35.863Z,18.83
2023-04-18T05:45:02.717Z,20.57
2023-04-18T05:47:30.405Z,20.33
2023-04-18T05:49:57.173Z,16.60
2023-04-18T05:52:25.744Z,15.67
2023-04-18T05:54:53.149Z,15.63
2023-04-18T05:57:19.869Z,16.37
2023-04-18T05:59:46.582Z,15.60
2023-04-18T06:02:13.781Z,19.40
2023-04-18T06:04:45.178Z,16.60
2023-04-18T06:07:12.128Z,17.77
2023-04-18T06:09:38.837Z,16.50
2023-04-18T06:12:05.826Z,13.97
2023-04-18T06:14:32.537Z,15.30
2023-04-18T06:16:59.669Z,15.83
2023-04-18T06:19:26.277Z,12.83
2023-04-18T06:21:53.394Z,15.40
2023-04-18T06:24:20.303Z,15.47
2023-04-18T06:26:47.410Z,11.67
2023-04-18T06:29:14.035Z,11.07
2023-04-18T06:31:42.204Z,11.73
2023-04-18T06:34:09.024Z,10.97
2023-04-18T06:36:36.344Z,9.85
2023-04-18T06:39:03.477Z,9.35
2023-04-18T06:41:30.123Z,9.55
2023-04-18T06:44:02.782Z,11.90
2023-04-18T06:46:30.837Z,10.27
2023-04-18T06:48:57.691Z,11.60
2023-04-18T06:51:24.322Z,10.23
2023-04-18T06:53:53.078Z,11.27
2023-04-18T06:56:20.809Z,9.90
2023-04-18T06:58:48.020Z,12.10
2023-04-18T07:01:14.812Z,11.33
2023-04-18T07:03:41.628Z,14.47
2023-04-18T07:06:10.594Z,9.52
2023-04-18T07:08:37.312Z,9.50
2023-04-18T07:11:04.094Z,10.87
2023-04-18T07:13:30.812Z,9.90
2023-04-18T07:15:57.593Z,11.70
2023-04-18T07:18:36.731Z,10.88
2023-04-18T07:21:07.524Z,13.20
2023-04-18T07:23:34.754Z,11.00
2023-04-18T07:26:02.839Z,12.00
2023-04-18T07:28:30.903Z,11.43
2023-04-18T07:30:57.768Z,13.83
2023-04-18T07:33:24.861Z,12.60
2023-04-18T07:35:52.416Z,13.67
2023-04-18T07:38:19.118Z,13.87
2023-04-18T07:40:45.812Z,11.70
2023-04-18T07:43:12.435Z,11.67
2023-04-18T07:45:39.244Z,10.20
2023-04-18T07:48:06.282Z,13.70
2023-04-18T07:50:32.941Z,12.75
2023-04-18T07:52:59.674Z,13.90
2023-04-18T07:55:26.884Z,12.67
2023-04-18T07:57:53.601Z,10.07
2023-04-18T08:00:20.519Z,10.63
2023-04-18T08:02:47.453Z,12.30
2023-04-18T08:05:14.155Z,12.10
2023-04-18T08:07:40.883Z,12.90
2023-04-18T08:10:07.973Z,12.57
2023-04-18T08:12:36.300Z,11.97
2023-04-18T08:15:03.881Z,14.23
2023-04-18T08:17:31.095Z,10.73
2023-04-18T08:19:57.743Z,9.63
2023-04-18T08:22:24.375Z,10.03
2023-04-18T08:25:03.692Z,12.50
2023-04-18T08:27:32.248Z,13.02
2023-04-18T08:29:58.928Z,8.27
2023-04-18T08:32:25.794Z,11.55
2023-04-18T08:34:52.456Z,12.13
2023-04-18T08:37:19.111Z,11.60
2023-04-18T08:39:45.748Z,10.77
2023-04-18T08:42:16.271Z,10.60
2023-04-18T08:44:43.131Z,11.32
2023-04-18T08:47:09.952Z,10.40
2023-04-18T08:49:36.536Z,10.80
2023-04-18T08:52:09.735Z,11.95
2023-04-18T08:54:37.262Z,10.77
2023-04-18T08:57:07.715Z,11.70
2023-04-18T08:59:35.735Z,12.40
2023-04-18T09:02:04.177Z,8.85
2023-04-18T09:04:35.269Z,10.73
2023-04-18T09:07:03.521Z,11.02
2023-04-18T09:09:47.319Z,10.53
2023-04-18T09:12:19.631Z,9.82
2023-04-18T09:14:47.139Z,10.23
2023-04-18T09:17:18.217Z,11.45
2023-04-18T09:19:49.007Z,10.38
2023-04-18T09:22:17.054Z,11.17
2023-04-18T09:24:53.275Z,12.48
2023-04-18T09:27:22.797Z,12.70
2023-04-18T09:29:54.756Z,13.38
2023-04-18T09:32:26.844Z,12.30
2023-04-18T09:34:58.720Z,14.20
2023-04-18T09:37:26.227Z,15.13
2023-04-18T09:39:53.099Z,12.38
2023-04-18T09:42:20.241Z,12.43
2023-04-18T09:45:06.056Z,13.18
2023-04-18T09:47:37.497Z,13.82
2023-04-18T09:50:05.405Z,14.10
2023-04-18T09:52:39.451Z,13.57
2023-04-18T09:55:11.324Z,12.45
2023-04-18T09:57:41.753Z,12.10
2023-04-18T10:00:24.258Z,15.25
2023-04-18T10:03:10.890Z,11.13
2023-04-18T10:05:39.881Z,11.95
2023-04-18T10:08:07.124Z,12.55
2023-04-18T10:10:33.884Z,12.93
2023-04-18T10:13:02.123Z,10.77
2023-04-18T10:15:29.747Z,13.45
2023-04-18T10:18:05.333Z,15.95
2023-04-18T10:20:34.656Z,15.88
2023-04-18T10:23:34.931Z,12.27
2023-04-18T10:26:03.120Z,12.05
2023-04-18T10:28:49.527Z,13.52
2023-04-18T10:31:16.641Z,11.35
2023-04-18T10:34:03.296Z,11.75
2023-04-18T10:36:31.126Z,13.15
2023-04-18T10:39:23.308Z,10.40
2023-04-18T10:41:51.192Z,12.20
2023-04-18T10:44:23.203Z,14.57
2023-04-18T10:46:53.421Z,13.23
2023-04-18T10:49:28.874Z,13.57
2023-04-18T10:52:01.271Z,14.75
2023-04-18T10:54:47.796Z,11.20
2023-04-18T10:57:15.264Z,13.55
2023-04-18T10:59:44.540Z,11.40
2023-04-18T11:02:32.625Z,14.95
2023-04-18T11:05:01.934Z,13.98
2023-04-18T11:07:40.765Z,12.20
2023-04-18T11:10:09.290Z,14.52
2023-04-18T11:12:37.694Z,12.65
2023-04-18T11:15:12.988Z,11.18
2023-04-18T11:17:40.288Z,9.75
2023-04-18T11:20:13.608Z,12.02
2023-04-18T11:22:44.008Z,12.80
2023-04-18T11:25:11.234Z,11.05
2023-04-18T11:27:37.958Z,11.00
2023-04-18T11:30:05.443Z,12.23
2023-04-18T11:32:34.272Z,10.57
2023-04-18T11:35:01.159Z,9.52
2023-04-18T11:37:27.813Z,11.82
2023-04-18T11:39:54.473Z,11.40
2023-04-18T11:42:27.760Z,11.32
2023-04-18T11:44:54.547Z,14.77
2023-04-18T11:47:34.001Z,11.13
2023-04-18T11:50:02.395Z,12.27
2023-04-18T11:52:30.829Z,12.48
2023-04-18T11:55:18.597Z,10.80
2023-04-18T11:57:52.937Z,10.05
2023-04-18T12:00:22.489Z,12.30
2023-04-18T12:02:50.942Z,10.60
2023-04-18T12:05:29.246Z,12.82
2023-04-18T12:07:56.634Z,14.15
2023-04-18T12:10:26.154Z,10.73
2023-04-18T12:12:54.193Z,13.93
2023-04-18T12:15:23.945Z,11.43
2023-04-18T12:17:53.504Z,10.65
2023-04-18T12:20:20.217Z,11.88
2023-04-18T12:22:50.630Z,9.73
2023-04-18T12:25:27.368Z,10.75
2023-04-18T12:27:59.381Z,11.32
2023-04-18T12:30:27.884Z,12.45
2023-04-18T12:32:56.839Z,13.20
2023-04-18T12:35:23.973Z,12.30
2023-04-18T12:37:52.288Z,11.45
2023-04-18T12:40:19.646Z,10.57
2023-04-18T12:42:47.683Z,10.65
2023-04-18T12:45:15.216Z,12.52
2023-04-18T12:47:43.080Z,10.90
2023-04-18T12:50:11.654Z,13.55
2023-04-18T12:52:40.068Z,10.90
2023-04-18T12:55:07.689Z,12.13
2023-04-18T12:57:34.350Z,10.50
2023-04-18T13:00:01.303Z,11.38
2023-04-18T13:02:29.247Z,12.30
2023-04-18T13:04:56.534Z,9.88
2023-04-18T13:07:23.233Z,9.52
2023-04-18T13:09:49.910Z,8.85
2023-04-18T13:12:16.658Z,9.45
2023-04-18T13:14:43.289Z,9.55
2023-04-18T13:17:09.922Z,10.10
2023-04-18T13:19:36.550Z,9.30
2023-04-18T13:22:03.167Z,10.23
2023-04-18T13:24:29.797Z,7.70
2023-04-18T13:26:56.589Z,8.73
2023-04-18T13:29:33.116Z,9.32
2023-04-18T13:31:59.779Z,8.52
2023-04-18T13:34:26.441Z,9.38
2023-04-18T13:36:53.100Z,7.40
2023-04-18T13:39:20.457Z,8.93
2023-04-18T13:41:47.344Z,7.97
2023-04-18T13:44:14.228Z,6.20
2023-04-18T13:46:41.169Z,6.97
2023-04-18T13:49:07.804Z,6.45
2023-04-18T13:51:34.550Z,7.45
2023-04-18T13:54:01.725Z,7.13
2023-04-18T13:56:28.383Z,8.70
2023-04-18T13:58:55.582Z,5.78
2023-04-18T14:01:22.356Z,7.07
2023-04-18T14:03:50.127Z,7.07
2023-04-18T14:06:17.005Z,7.38
2023-04-18T14:08:43.806Z,5.47
2023-04-18T14:11:10.457Z,5.53
2023-04-18T14:13:37.153Z,6.63
2023-04-18T14:16:03.859Z,5.50
2023-04-18T14:18:30.452Z,6.65
2023-04-18T14:20:57.094Z,6.00
2023-04-18T14:23:23.849Z,4.65
2023-04-18T14:25:50.719Z,5.03
2023-04-18T14:28:19.066Z,4.70
2023-04-18T14:30:45.794Z,3.78
2023-04-18T14:33:12.613Z,5.95
2023-04-18T14:35:39.258Z,4.65
2023-04-18T14:38:05.930Z,4.50
2023-04-18T14:40:33.344Z,4.25
2023-04-18T14:43:00.050Z,4.93
2023-04-18T14:45:26.666Z,5.85
2023-04-18T14:47:55.523Z,4.00
2023-04-18T14:50:23.502Z,4.65
2023-04-18T14:52:51.079Z,4.07
2023-04-18T14:55:19.422Z,5.72
2023-04-18T14:57:46.525Z,3.53
2023-04-18T15:00:14.680Z,3.55
2023-04-18T15:02:41.849Z,4.78
2023-04-18T15:05:09.244Z,5.07
2023-04-18T15:07:39.064Z,3.95
2023-04-18T15:10:06.207Z,3.78
2023-04-18T15:12:32.910Z,5.43
2023-04-18T15:14:59.884Z,4.35
2023-04-18T15:17:26.514Z,4.43
2023-04-18T15:19:53.200Z,4.55
2023-04-18T15:22:19.847Z,5.70
2023-04-18T15:24:47.406Z,7.47
2023-04-18T15:27:14.025Z,5.25
2023-04-18T15:29:40.986Z,11.02
2023-04-18T15:32:08.023Z,6.38
2023-04-18T15:34:34.728Z,6.65
2023-04-18T15:37:02.326Z,6.40
2023-04-18T15:39:28.933Z,7.88
2023-04-18T15:41:55.653Z,6.72
2023-04-18T15:44:22.690Z,5.65
2023-04-18T15:46:49.416Z,7.90
2023-04-18T15:49:16.057Z,5.32
2023-04-18T15:51:42.702Z,6.65
2023-04-18T15:54:09.402Z,7.03
2023-04-18T15:56:36.895Z,6.32
2023-04-18T15:59:04.950Z,8.57
2023-04-18T16:01:32.249Z,6.10
2023-04-18T16:03:59.044Z,11.88
2023-04-18T16:06:26.566Z,6.40
2023-04-18T16:08:53.272Z,6.82
2023-04-18T16:11:21.032Z,7.03
2023-04-18T16:13:47.703Z,7.20
2023-04-18T16:16:14.477Z,7.22
2023-04-18T16:18:44.151Z,6.95
2023-04-18T16:21:16.188Z,8.85
2023-04-18T16:23:43.069Z,9.27
2023-04-18T16:26:09.690Z,7.72
2023-04-18T16:28:37.741Z,9.50
2023-04-18T16:31:05.980Z,8.93
2023-04-18T16:33:32.794Z,8.30
2023-04-18T16:36:02.514Z,8.27
2023-04-18T16:38:29.302Z,9.00
2023-04-18T16:40:57.361Z,8.13
2023-04-18T16:43:26.788Z,6.88
2023-04-18T16:45:56.387Z,6.43
2023-04-18T16:48:27.278Z,6.13
2023-04-18T16:50:53.882Z,7.63
2023-04-18T16:53:21.948Z,6.10
2023-04-18T16:55:50.400Z,7.10
2023-04-18T16:58:17.088Z,6.07
2023-04-18T17:00:43.680Z,8.55
2023-04-18T17:03:10.404Z,7.00
2023-04-18T17:05:39.355Z,5.40
2023-04-18T17:08:06.879Z,6.10
2023-04-18T17:10:33.905Z,7.65
2023-04-18T17:13:02.286Z,8.63
2023-04-18T17:15:29.078Z,6.47
2023-04-18T17:18:00.573Z,6.28
2023-04-18T17:20:28.282Z,8.45
2023-04-18T17:22:55.268Z,5.93
2023-04-18T17:25:21.893Z,7.22
2023-04-18T17:27:48.625Z,7.43
2023-04-18T17:30:15.329Z,7.68
2023-04-18T17:32:45.801Z,7.43
2023-04-18T17:35:14.683Z,6.40
2023-04-18T17:37:42.433Z,6.60
2023-04-18T17:40:10.121Z,5.32
2023-04-18T17:42:36.897Z,7.57
2023-04-18T17:45:05.311Z,7.65
2023-04-18T17:47:33.500Z,6.75
2023-04-18T17:50:00.911Z,8.05
2023-04-18T17:52:30.622Z,5.90
2023-04-18T17:54:58.155Z,6.47
2023-04-18T17:57:26.629Z,6.30
2023-04-18T17:59:53.631Z,6.83
2023-04-18T18:02:20.448Z,5.03
2023-04-18T18:04:47.240Z,7.03
2023-04-18T18:07:14.038Z,5.63
2023-04-18T18:09:44.511Z,6.17
2023-04-18T18:12:11.463Z,8.40
2023-04-18T18:14:40.069Z,11.73
2023-04-18T18:17:06.745Z,8.27
2023-04-18T18:19:35.931Z,8.10
2023-04-18T18:22:02.596Z,6.47
2023-04-18T18:24:29.289Z,5.87
2023-04-18T18:26:56.840Z,9.17
2023-04-18T18:29:23.538Z,7.90
2023-04-18T18:31:50.425Z,8.77
2023-04-18T18:34:17.215Z,6.23
2023-04-18T18:36:43.838Z,8.00
2023-04-18T18:39:11.170Z,7.43
2023-04-18T18:41:37.973Z,8.63
2023-04-18T18:44:04.801Z,5.90
2023-04-18T18:46:31.543Z,7.00
2023-04-18T18:48:58.141Z,9.47
2023-04-18T18:51:24.978Z,8.03
2023-04-18T18:53:51.598Z,7.23
2023-04-18T18:56:18.279Z,9.70
2023-04-18T18:58:44.922Z,8.57
2023-04-18T19:01:11.575Z,7.87
2023-04-18T19:03:38.533Z,6.13
2023-04-18T19:06:07.082Z,10.20
2023-04-18T19:08:34.099Z,7.90
2023-04-18T19:11:00.749Z,6.97
2023-04-18T19:13:27.341Z,7.53
2023-04-18T19:15:54.023Z,11.03
2023-04-18T19:18:21.363Z,7.93
2023-04-18T19:20:49.745Z,8.30
2023-04-18T19:23:17.335Z,9.47
2023-04-18T19:25:44.936Z,10.13
2023-04-18T19:28:12.840Z,8.47
2023-04-18T19:30:39.539Z,7.43
2023-04-18T19:33:06.229Z,7.50
2023-04-18T19:35:32.863Z,8.87
2023-04-18T19:38:02.217Z,9.53
2023-04-18T19:40:29.108Z,9.97
2023-04-18T19:42:55.687Z,10.80
2023-04-18T19:45:22.313Z,14.27
2023-04-18T19:47:49.030Z,9.20
2023-04-18T19:50:15.759Z,11.23
2023-04-18T19:52:42.514Z,10.80
2023-04-18T19:55:09.794Z,7.27
2023-04-18T19:57:39.092Z,10.17
2023-04-18T20:00:08.167Z,11.43
2023-04-18T20:02:35.015Z,12.87
2023-04-18T20:05:01.883Z,9.57
2023-04-18T20:07:28.744Z,11.87
2023-04-18T20:09:55.436Z,10.10
2023-04-18T20:12:22.232Z,9.30
2023-04-18T20:14:48.856Z,10.47
2023-04-18T20:17:15.690Z,9.23
2023-04-18T20:19:42.448Z,9.20
2023-04-18T20:22:09.111Z,11.77
2023-04-18T20:24:35.762Z,10.07
2023-04-18T20:27:03.402Z,10.47
2023-04-18T20:29:30.084Z,7.63
2023-04-18T20:31:56.831Z,7.87
2023-04-18T20:34:23.698Z,8.37
2023-04-18T20:36:52.385Z,7.50
2023-04-18T20:39:19.561Z,6.33
2023-04-18T20:41:51.166Z,6.80
2023-04-18T20:44:21.728Z,7.50
2023-04-18T20:46:48.479Z,7.80
2023-04-18T20:49:15.474Z,6.27
2023-04-18T20:51:42.327Z,6.70
2023-04-18T20:54:08.928Z,5.47
2023-04-18T20:56:38.665Z,5.77
2023-04-18T20:59:05.408Z,5.37
2023-04-18T21:01:32.062Z,6.47
2023-04-18T21:03:59.468Z,8.63
2023-04-18T21:06:28.303Z,9.27
2023-04-18T21:08:55.066Z,6.63
2023-04-18T21:11:21.778Z,7.00
2023-04-18T21:13:48.428Z,5.20
2023-04-18T21:16:15.173Z,7.37
2023-04-18T21:18:41.851Z,7.20
2023-04-18T21:21:09.025Z,8.90
2023-04-18T21:23:41.817Z,6.67
2023-04-18T21:26:13.228Z,6.53
2023-04-18T21:28:53.359Z,7.03
2023-04-18T21:31:20.018Z,7.97
2023-04-18T21:33:46.666Z,6.03
2023-04-18T21:36:13.315Z,8.90
2023-04-18T21:38:40.021Z,8.97
2023-04-18T21:41:06.750Z,8.73
2023-04-18T21:43:33.413Z,9.07
2023-04-18T21:46:00.251Z,8.70
2023-04-18T21:48:26.932Z,8.20
2023-04-18T21:50:54.870Z,6.37
2023-04-18T21:53:21.501Z,10.93
2023-04-18T21:55:48.148Z,6.20
2023-04-18T21:58:14.798Z,6.57
2023-04-18T22:00:41.475Z,8.77
2023-04-18T22:03:08.893Z,7.03
2023-04-18T22:05:37.111Z,6.43
2023-04-18T22:08:03.877Z,6.27
2023-04-18T22:10:31.012Z,7.83
2023-04-18T22:12:58.428Z,7.03
2023-04-18T22:15:26.879Z,8.37
2023-04-18T22:17:54.253Z,6.83
2023-04-18T22:20:21.587Z,5.17
2023-04-18T22:22:48.234Z,5.57
2023-04-18T22:25:14.841Z,7.63
2023-04-18T22:27:43.021Z,4.70
2023-04-18T22:30:10.078Z,6.80
2023-04-18T22:32:37.681Z,8.13
2023-04-18T22:35:04.804Z,7.20
2023-04-18T22:37:31.423Z,6.10
2023-04-18T22:39:58.032Z,7.30
2023-04-18T22:42:24.616Z,6.30
2023-04-18T22:44:51.250Z,6.87
2023-04-18T22:47:17.892Z,7.33
2023-04-18T22:49:44.541Z,5.63
2023-04-18T22:52:11.911Z,6.70
2023-04-18T22:54:39.202Z,6.37
2023-04-18T22:57:05.820Z,5.13
2023-04-18T22:59:32.451Z,5.97
2023-04-18T23:01:59.277Z,5.87
2023-04-18T23:04:29.883Z,6.17
2023-04-18T23:06:56.748Z,4.87
2023-04-18T23:09:24.451Z,8.20
2023-04-18T23:11:51.195Z,8.00
2023-04-18T23:14:17.888Z,8.20
2023-04-18T23:16:44.632Z,5.33
2023-04-18T23:19:11.270Z,6.90
2023-04-18T23:21:37.944Z,5.07
2023-04-18T23:24:04.670Z,7.43
2023-04-18T23:26:31.297Z,11.43
2023-04-18T23:28:57.939Z,4.50
2023-04-18T23:31:24.701Z,5.63
2023-04-18T23:33:51.392Z,6.53
2023-04-18T23:36:17.996Z,7.30
2023-04-18T23:38:44.563Z,5.13
2023-04-18T23:41:11.250Z,8.90
2023-04-18T23:43:37.871Z,8.47
2023-04-18T23:46:04.540Z,6.53
2023-04-18T23:48:31.241Z,4.87
2023-04-18T23:50:57.927Z,5.00
2023-04-18T23:53:25.110Z,5.53
2023-04-18T23:55:53.106Z,5.43
2023-04-18T23:58:19.719Z,5.00
